createdAt,value
2023-07-04T00:00:42.800Z,79.00
2023-07-04T00:01:42.822Z,79.44
2023-07-04T00:02:42.859Z,79.95
2023-07-04T00:03:42.863Z,79.95
2023-07-04T00:04:42.773Z,80.05
2023-07-04T00:05:42.716Z,80.46
2023-07-04T00:06:42.736Z,80.77
2023-07-04T00:07:42.726Z,80.80
2023-07-04T00:08:42.758Z,80.70
2023-07-04T00:09:42.676Z,81.11
2023-07-04T00:10:43.065Z,81.52
2023-07-04T00:11:42.725Z,81.72
2023-07-04T00:12:42.681Z,81.41
2023-07-04T00:13:42.679Z,81.31
2023-07-04T00:14:42.646Z,80.91
2023-07-04T00:15:42.622Z,80.91
2023-07-04T00:16:42.659Z,81.31
2023-07-04T00:17:42.685Z,81.21
2023-07-04T00:18:43.577Z,81.11
2023-07-04T00:19:42.590Z,81.11
2023-07-04T00:20:42.563Z,80.29
2023-07-04T00:21:42.632Z,80.26
2023-07-04T00:22:42.569Z,80.56
2023-07-04T00:23:42.564Z,80.66
2023-07-04T00:24:42.541Z,80.80
2023-07-04T00:25:42.526Z,81.01
2023-07-04T00:26:42.499Z,81.11
2023-07-04T00:27:42.493Z,81.01
2023-07-04T00:28:42.487Z,81.21
2023-07-04T00:29:42.490Z,81.62
2023-07-04T00:30:42.514Z,81.76
2023-07-04T00:31:42.480Z,81.76
2023-07-04T00:32:42.463Z,81.76
2023-07-04T00:33:42.451Z,82.17
2023-07-04T00:34:42.407Z,82.27
2023-07-04T00:35:42.420Z,82.37
2023-07-04T00:36:42.407Z,82.47
2023-07-04T00:37:42.378Z,82.47
2023-07-04T00:38:42.380Z,82.57
2023-07-04T00:39:42.393Z,82.78
2023-07-04T00:40:42.355Z,82.82
2023-07-04T00:41:42.359Z,83.02
2023-07-04T00:42:42.329Z,83.23
2023-07-04T00:43:42.322Z,83.23
2023-07-04T00:44:42.328Z,83.53
2023-07-04T00:45:42.302Z,83.73
2023-07-04T00:46:42.335Z,83.63
2023-07-04T00:47:42.309Z,83.63
2023-07-04T00:48:42.245Z,83.53
2023-07-04T00:49:42.249Z,83.63
2023-07-04T00:50:42.220Z,83.94
2023-07-04T00:51:42.231Z,84.04
2023-07-04T00:52:42.428Z,84.14
2023-07-04T00:53:42.218Z,84.08
2023-07-04T00:54:42.200Z,84.39
2023-07-04T00:55:42.220Z,84.39
2023-07-04T00:56:42.187Z,84.69
2023-07-04T00:57:42.184Z,84.90
2023-07-04T00:58:42.320Z,84.69
2023-07-04T00:59:42.148Z,84.80
2023-07-04T01:00:42.149Z,84.80
2023-07-04T01:01:42.191Z,84.69
2023-07-04T01:02:42.249Z,85.00
2023-07-04T01:03:42.142Z,85.14
2023-07-04T01:04:42.056Z,85.14
2023-07-04T01:05:42.087Z,85.24
2023-07-04T01:06:42.073Z,85.55
2023-07-04T01:07:42.076Z,85.75
2023-07-04T01:08:42.011Z,85.65
2023-07-04T01:09:42.045Z,85.86
2023-07-04T01:10:41.986Z,85.75
2023-07-04T01:11:42.005Z,86.00
2023-07-04T01:12:42.800Z,85.69
2023-07-04T01:13:42.116Z,86.00
2023-07-04T01:14:41.963Z,86.10
2023-07-04T01:15:41.954Z,86.41
2023-07-04T01:16:42.004Z,86.51
2023-07-04T01:17:41.977Z,86.51
2023-07-04T01:18:41.894Z,86.71
2023-07-04T01:19:41.935Z,87.23
2023-07-04T01:20:41.871Z,87.12
2023-07-04T01:21:41.908Z,87.26
2023-07-04T01:22:41.842Z,87.47
2023-07-04T01:23:41.875Z,87.37
2023-07-04T01:24:41.833Z,87.26
2023-07-04T01:25:41.848Z,87.47
2023-07-04T01:26:41.808Z,87.77
2023-07-04T01:27:41.861Z,87.88
2023-07-04T01:28:41.796Z,87.88
2023-07-04T01:29:41.789Z,87.77
2023-07-04T01:30:41.807Z,87.92
2023-07-04T01:31:41.825Z,87.88
2023-07-04T01:32:42.716Z,88.02
2023-07-04T01:33:41.842Z,88.02
2023-07-04T01:34:41.778Z,88.12
2023-07-04T01:35:41.745Z,88.12
2023-07-04T01:36:41.695Z,88.33
2023-07-04T01:37:41.717Z,88.43
2023-07-04T01:38:41.681Z,88.02
2023-07-04T01:39:41.703Z,87.71
2023-07-04T01:40:41.656Z,87.82
2023-07-04T01:41:41.680Z,88.02
2023-07-04T01:42:41.689Z,88.02
2023-07-04T01:43:41.649Z,88.12
2023-07-04T01:44:41.619Z,87.92
2023-07-04T01:45:41.627Z,88.02
2023-07-04T01:46:41.665Z,88.23
2023-07-04T01:47:41.675Z,88.12
2023-07-04T01:48:41.559Z,88.02
2023-07-04T01:49:41.594Z,88.33
2023-07-04T01:50:41.554Z,88.33
2023-07-04T01:51:41.802Z,88.12
2023-07-04T01:52:42.144Z,88.12
2023-07-04T01:53:41.540Z,88.12
2023-07-04T01:54:42.139Z,88.23
2023-07-04T01:55:41.512Z,88.33
2023-07-04T01:56:41.482Z,88.33
2023-07-04T01:57:41.644Z,88.23
2023-07-04T01:58:41.467Z,87.57
2023-07-04T01:59:41.460Z,87.47
2023-07-04T02:00:41.425Z,87.57
2023-07-04T02:01:41.511Z,87.47
2023-07-04T02:02:41.511Z,87.37
2023-07-04T02:03:41.537Z,87.47
2023-07-04T02:04:41.397Z,87.26
2023-07-04T02:05:42.256Z,87.26
2023-07-04T02:06:41.386Z,86.96
2023-07-04T02:07:41.377Z,87.16
2023-07-04T02:08:41.343Z,87.16
2023-07-04T02:09:41.367Z,87.16
2023-07-04T02:10:41.329Z,87.16
2023-07-04T02:11:41.635Z,86.96
2023-07-04T02:12:41.304Z,86.96
2023-07-04T02:13:42.371Z,86.76
2023-07-04T02:14:42.061Z,86.76
2023-07-04T02:15:41.754Z,86.51
2023-07-04T02:16:41.290Z,86.30
2023-07-04T02:17:41.380Z,86.20
2023-07-04T02:18:41.240Z,86.10
2023-07-04T02:19:41.240Z,86.10
2023-07-04T02:20:41.230Z,86.10
2023-07-04T02:21:41.213Z,86.10
2023-07-04T02:22:41.203Z,86.10
2023-07-04T02:23:41.207Z,86.10
2023-07-04T02:24:41.172Z,85.83
2023-07-04T02:25:41.231Z,86.04
2023-07-04T02:26:41.162Z,86.14
2023-07-04T02:27:41.152Z,86.49
2023-07-04T02:28:41.132Z,86.79
2023-07-04T02:29:41.141Z,87.10
2023-07-04T02:30:41.097Z,87.71
2023-07-04T02:31:41.155Z,87.85
2023-07-04T02:32:41.112Z,88.06
2023-07-04T02:33:41.113Z,88.17
2023-07-04T02:34:41.074Z,88.06
2023-07-04T02:35:41.229Z,88.17
2023-07-04T02:36:41.037Z,88.37
2023-07-04T02:37:41.050Z,88.06
2023-07-04T02:38:41.045Z,88.17
2023-07-04T02:39:41.010Z,88.26
2023-07-04T02:40:41.001Z,88.26
2023-07-04T02:41:41.067Z,88.02
2023-07-04T02:42:40.987Z,87.76
2023-07-04T02:43:41.042Z,87.71
2023-07-04T02:44:41.252Z,87.82
2023-07-04T02:45:40.948Z,88.02
2023-07-04T02:46:40.950Z,87.82
2023-07-04T02:47:41.075Z,87.55
2023-07-04T02:48:40.909Z,87.55
2023-07-04T02:49:40.904Z,87.65
2023-07-04T02:50:40.879Z,88.17
2023-07-04T02:51:40.876Z,88.68
2023-07-04T02:52:40.848Z,88.78
2023-07-04T02:53:40.888Z,88.37
2023-07-04T02:54:41.644Z,88.17
2023-07-04T02:55:40.924Z,88.31
2023-07-04T02:56:40.805Z,88.31
2023-07-04T02:57:40.831Z,88.62
2023-07-04T02:58:40.789Z,88.62
2023-07-04T02:59:40.873Z,88.92
2023-07-04T03:00:40.757Z,89.06
2023-07-04T03:01:40.825Z,89.27
2023-07-04T03:02:40.817Z,89.37
2023-07-04T03:03:40.859Z,89.37
2023-07-04T03:04:40.737Z,89.37
2023-07-04T03:05:40.722Z,89.78
2023-07-04T03:06:40.681Z,90.19
2023-07-04T03:07:40.695Z,90.19
2023-07-04T03:08:40.660Z,90.23
2023-07-04T03:09:40.685Z,90.13
2023-07-04T03:10:40.673Z,90.23
2023-07-04T03:11:41.470Z,90.13
2023-07-04T03:12:40.611Z,90.34
2023-07-04T03:13:41.485Z,90.44
2023-07-04T03:14:41.537Z,90.54
2023-07-04T03:15:41.424Z,90.64
2023-07-04T03:16:41.377Z,90.75
2023-07-04T03:17:40.653Z,90.95
2023-07-04T03:18:40.552Z,90.95
2023-07-04T03:19:40.574Z,90.84
2023-07-04T03:20:40.540Z,90.99
2023-07-04T03:21:40.555Z,91.09
2023-07-04T03:22:40.526Z,91.16
2023-07-04T03:23:40.525Z,91.16
2023-07-04T03:24:40.489Z,91.20
2023-07-04T03:25:40.506Z,91.20
2023-07-04T03:26:40.459Z,91.30
2023-07-04T03:27:40.472Z,91.30
2023-07-04T03:28:40.439Z,91.30
2023-07-04T03:29:40.451Z,91.30
2023-07-04T03:30:40.460Z,91.20
2023-07-04T03:31:40.494Z,91.30
2023-07-04T03:32:40.429Z,91.30
2023-07-04T03:33:40.476Z,91.30
2023-07-04T03:34:40.443Z,91.50
2023-07-04T03:35:53.159Z,91.61
2023-07-04T03:36:41.601Z,91.71
2023-07-04T03:37:40.366Z,91.71
2023-07-04T03:38:40.663Z,91.40
2023-07-04T03:39:40.340Z,91.30
2023-07-04T03:40:40.295Z,91.36
2023-07-04T03:41:40.331Z,91.36
2023-07-04T03:42:40.318Z,91.46
2023-07-04T03:43:40.293Z,91.46
2023-07-04T03:44:40.260Z,91.46
2023-07-04T03:45:40.270Z,91.42
2023-07-04T03:46:40.229Z,91.42
2023-07-04T03:47:40.287Z,91.11
2023-07-04T03:48:40.261Z,91.01
2023-07-04T03:49:40.349Z,91.01
2023-07-04T03:50:40.333Z,90.56
2023-07-04T03:51:40.200Z,90.45
2023-07-04T03:52:40.456Z,90.45
2023-07-04T03:53:40.188Z,90.36
2023-07-04T03:54:40.593Z,90.21
2023-07-04T03:55:40.913Z,90.00
2023-07-04T03:56:40.956Z,89.90
2023-07-04T03:57:40.169Z,89.90
2023-07-04T03:58:40.597Z,89.76
2023-07-04T03:59:40.102Z,89.65
2023-07-04T04:00:40.084Z,89.56
2023-07-04T04:01:40.098Z,89.31
2023-07-04T04:02:40.121Z,89.20
2023-07-04T04:03:40.197Z,89.00
2023-07-04T04:04:40.666Z,88.55
2023-07-04T04:05:40.070Z,88.14
2023-07-04T04:06:40.014Z,87.94
2023-07-04T04:07:40.026Z,87.59
2023-07-04T04:08:39.998Z,87.18
2023-07-04T04:09:40.055Z,87.08
2023-07-04T04:10:39.978Z,86.83
2023-07-04T04:11:39.995Z,86.63
2023-07-04T04:12:39.929Z,86.63
2023-07-04T04:13:39.989Z,86.63
2023-07-04T04:14:39.932Z,86.33
2023-07-04T04:15:39.940Z,85.88
2023-07-04T04:16:40.727Z,85.57
2023-07-04T04:17:40.028Z,85.27
2023-07-04T04:18:39.871Z,84.75
2023-07-04T04:19:39.889Z,84.75
2023-07-04T04:20:39.857Z,84.82
2023-07-04T04:21:39.877Z,84.61
2023-07-04T04:22:39.854Z,84.41
2023-07-04T04:23:39.834Z,83.59
2023-07-04T04:24:39.803Z,83.39
2023-07-04T04:25:39.877Z,83.35
2023-07-04T04:26:39.779Z,83.15
2023-07-04T04:27:39.794Z,82.94
2023-07-04T04:28:39.781Z,83.15
2023-07-04T04:29:39.765Z,82.60
2023-07-04T04:30:39.798Z,81.99
2023-07-04T04:31:39.749Z,81.48
2023-07-04T04:32:39.770Z,81.58
2023-07-04T04:33:39.738Z,81.07
2023-07-04T04:34:39.717Z,81.17
2023-07-04T04:35:40.154Z,81.13
2023-07-04T04:36:40.150Z,81.34
2023-07-04T04:37:40.145Z,81.34
2023-07-04T04:38:40.250Z,81.54
2023-07-04T04:39:39.629Z,81.65
2023-07-04T04:40:39.726Z,80.93
2023-07-04T04:41:39.639Z,80.73
2023-07-04T04:42:39.635Z,80.93
2023-07-04T04:43:39.612Z,80.63
2023-07-04T04:44:39.665Z,80.08
2023-07-04T04:45:39.655Z,80.08
2023-07-04T04:46:39.595Z,80.29
2023-07-04T04:47:39.624Z,80.29
2023-07-04T04:48:39.593Z,80.08
2023-07-04T04:49:39.516Z,79.88
2023-07-04T04:50:39.527Z,80.18
2023-07-04T04:51:39.514Z,79.68
2023-07-04T04:52:39.513Z,79.63
2023-07-04T04:53:39.568Z,79.43
2023-07-04T04:54:39.526Z,79.43
2023-07-04T04:55:39.494Z,77.40
2023-07-04T04:56:39.475Z,77.81
2023-07-04T04:57:40.378Z,78.52
2023-07-04T04:58:39.474Z,78.72
2023-07-04T04:59:39.418Z,78.38
2023-07-04T05:00:39.439Z,78.28
2023-07-04T05:01:39.459Z,78.28
2023-07-04T05:02:39.457Z,78.08
2023-07-04T05:03:39.393Z,78.48
2023-07-04T05:04:39.421Z,78.58
2023-07-04T05:05:39.352Z,78.58
2023-07-04T05:06:39.364Z,77.16
2023-07-04T05:07:39.349Z,77.36
2023-07-04T05:08:39.392Z,77.06
2023-07-04T05:09:39.330Z,76.92
2023-07-04T05:10:39.334Z,77.02
2023-07-04T05:11:39.294Z,76.51
2023-07-04T05:12:39.300Z,76.61
2023-07-04T05:13:39.363Z,76.92
2023-07-04T05:14:39.310Z,76.61
2023-07-04T05:15:39.266Z,76.61
2023-07-04T05:16:39.399Z,76.92
2023-07-04T05:17:40.260Z,76.61
2023-07-04T05:18:39.322Z,76.61
2023-07-04T05:19:39.271Z,76.48
2023-07-04T05:20:39.214Z,75.26
2023-07-04T05:21:39.207Z,75.87
2023-07-04T05:22:39.208Z,76.28
2023-07-04T05:23:39.180Z,75.67
2023-07-04T05:24:39.173Z,75.05
2023-07-04T05:25:39.138Z,75.67
2023-07-04T05:26:39.156Z,75.52
2023-07-04T05:27:39.131Z,74.51
2023-07-04T05:28:39.137Z,75.22
2023-07-04T05:29:39.096Z,75.83
2023-07-04T05:30:39.105Z,74.92
2023-07-04T05:31:39.176Z,74.82
2023-07-04T05:32:39.105Z,75.63
2023-07-04T05:33:39.056Z,75.52
2023-07-04T05:34:39.072Z,75.02
2023-07-04T05:35:39.040Z,75.12
2023-07-04T05:36:39.064Z,75.02
2023-07-04T05:37:39.011Z,75.19
2023-07-04T05:38:39.264Z,70.21
2023-07-04T05:39:39.268Z,70.72
2023-07-04T05:40:38.983Z,73.16
2023-07-04T05:41:38.964Z,73.57
2023-07-04T05:42:39.384Z,72.45
2023-07-04T05:43:38.945Z,73.46
2023-07-04T05:44:39.021Z,73.53
2023-07-04T05:45:38.974Z,74.34
2023-07-04T05:46:38.992Z,73.43
2023-07-04T05:47:38.925Z,73.93
2023-07-04T05:48:38.896Z,73.43
2023-07-04T05:49:38.863Z,74.14
2023-07-04T05:50:38.863Z,74.24
2023-07-04T05:51:38.901Z,74.34
2023-07-04T05:52:38.841Z,73.43
2023-07-04T05:53:38.893Z,73.73
2023-07-04T05:54:38.821Z,70.89
2023-07-04T05:55:38.775Z,73.43
2023-07-04T05:56:38.805Z,72.17
2023-07-04T05:57:38.765Z,69.13
2023-07-04T05:58:38.777Z,68.63
2023-07-04T05:59:38.776Z,71.73
2023-07-04T06:00:38.747Z,72.24
2023-07-04T06:01:39.047Z,71.84
2023-07-04T06:02:38.752Z,71.94
2023-07-04T06:03:38.850Z,72.24
2023-07-04T06:04:38.850Z,71.84
2023-07-04T06:05:38.671Z,71.84
2023-07-04T06:06:38.726Z,70.93
2023-07-04T06:07:38.667Z,71.73
2023-07-04T06:08:38.666Z,71.91
2023-07-04T06:09:38.639Z,72.31
2023-07-04T06:10:38.675Z,70.18
2023-07-04T06:11:38.604Z,71.47
2023-07-04T06:12:38.625Z,70.36
2023-07-04T06:13:38.635Z,70.45
2023-07-04T06:14:38.621Z,70.15
2023-07-04T06:15:38.603Z,69.85
2023-07-04T06:16:38.633Z,70.65
2023-07-04T06:17:38.600Z,70.45
2023-07-04T06:18:38.557Z,71.37
2023-07-04T06:19:38.517Z,70.86
2023-07-04T06:20:38.532Z,66.88
2023-07-04T06:21:44.608Z,66.38
2023-07-04T06:22:39.514Z,66.14
2023-07-04T06:23:38.468Z,65.33
2023-07-04T06:24:38.487Z,64.70
2023-07-04T06:25:38.477Z,65.81
2023-07-04T06:26:38.646Z,66.82
2023-07-04T06:27:38.437Z,67.63
2023-07-04T06:28:38.461Z,64.56
2023-07-04T06:29:38.415Z,67.19
2023-07-04T06:30:38.430Z,66.31
2023-07-04T06:31:38.431Z,65.57
2023-07-04T06:32:38.412Z,65.88
2023-07-04T06:33:40.475Z,64.03
2023-07-04T06:34:38.367Z,64.84
2023-07-04T06:35:38.347Z,65.51
2023-07-04T06:36:38.384Z,65.81
2023-07-04T06:37:38.348Z,65.71
2023-07-04T06:38:38.333Z,65.92
2023-07-04T06:39:38.736Z,64.81
2023-07-04T06:40:38.328Z,64.81
2023-07-04T06:41:38.295Z,65.51
2023-07-04T06:42:38.294Z,65.92
2023-07-04T06:43:38.258Z,66.62
2023-07-04T06:44:38.270Z,64.30
2023-07-04T06:45:38.229Z,65.81
2023-07-04T06:46:38.277Z,65.08
2023-07-04T06:47:38.270Z,65.58
2023-07-04T06:48:38.232Z,63.76
2023-07-04T06:49:38.191Z,63.53
2023-07-04T06:50:38.197Z,64.98
2023-07-04T06:51:38.161Z,65.68
2023-07-04T06:52:38.214Z,66.25
2023-07-04T06:53:38.177Z,66.99
2023-07-04T06:54:38.159Z,67.49
2023-07-04T06:55:39.291Z,67.76
2023-07-04T06:56:38.149Z,67.76
2023-07-04T06:57:38.091Z,66.35
2023-07-04T06:58:38.114Z,67.06
2023-07-04T06:59:38.089Z,65.21
2023-07-04T07:00:38.230Z,65.31
2023-07-04T07:01:38.138Z,66.08
2023-07-04T07:02:38.187Z,66.08
2023-07-04T07:03:38.125Z,65.21
2023-07-04T07:04:38.055Z,65.92
2023-07-04T07:05:38.037Z,65.28
2023-07-04T07:06:38.041Z,64.04
2023-07-04T07:07:37.988Z,63.93
2023-07-04T07:08:38.010Z,65.18
2023-07-04T07:09:37.963Z,65.75
2023-07-04T07:10:37.980Z,66.05
2023-07-04T07:11:37.944Z,65.25
2023-07-04T07:12:37.956Z,65.28
2023-07-04T07:13:37.936Z,64.37
2023-07-04T07:14:37.949Z,65.38
2023-07-04T07:15:37.890Z,64.27
2023-07-04T07:16:37.944Z,62.43
2023-07-04T07:17:38.822Z,62.40
2023-07-04T07:18:37.923Z,62.90
2023-07-04T07:19:40.340Z,63.30
2023-07-04T07:20:37.851Z,63.50
2023-07-04T07:21:37.875Z,64.01
2023-07-04T07:22:37.853Z,63.47
2023-07-04T07:23:37.883Z,64.69
2023-07-04T07:24:37.878Z,63.95
2023-07-04T07:25:37.770Z,63.75
2023-07-04T07:26:38.588Z,61.90
2023-07-04T07:27:37.760Z,61.90
2023-07-04T07:28:37.785Z,60.69
2023-07-04T07:29:37.737Z,60.89
2023-07-04T07:30:37.769Z,61.47
2023-07-04T07:31:37.740Z,62.38
2023-07-04T07:32:37.766Z,60.67
2023-07-04T07:33:37.714Z,61.47
2023-07-04T07:34:37.705Z,60.84
2023-07-04T07:35:37.694Z,60.13
2023-07-04T07:36:37.691Z,59.33
2023-07-04T07:37:37.651Z,59.74
2023-07-04T07:38:37.653Z,60.13
2023-07-04T07:39:37.638Z,61.04
2023-07-04T07:40:38.501Z,60.31
2023-07-04T07:41:37.653Z,59.94
2023-07-04T07:42:37.662Z,60.97
2023-07-04T07:43:37.580Z,60.87
2023-07-04T07:44:37.598Z,60.77
2023-07-04T07:45:37.561Z,61.37
2023-07-04T07:46:37.605Z,60.89
2023-07-04T07:47:37.572Z,61.56
2023-07-04T07:48:37.653Z,63.07
2023-07-04T07:49:37.526Z,63.57
2023-07-04T07:50:37.529Z,64.48
2023-07-04T07:51:37.488Z,63.27
2023-07-04T07:52:37.502Z,63.73
2023-07-04T07:53:37.472Z,64.11
2023-07-04T07:54:37.481Z,64.01
2023-07-04T07:55:37.469Z,63.67
2023-07-04T07:56:37.460Z,63.04
2023-07-04T07:57:37.423Z,62.51
2023-07-04T07:58:37.481Z,61.37
2023-07-04T07:59:37.399Z,62.62
2023-07-04T08:00:37.426Z,60.38
2023-07-04T08:01:38.289Z,59.58
2023-07-04T08:02:37.442Z,58.37
2023-07-04T08:03:37.479Z,58.50
2023-07-04T08:04:37.559Z,58.60
2023-07-04T08:05:37.465Z,58.33
2023-07-04T08:06:37.348Z,59.66
2023-07-04T08:07:37.316Z,59.46
2023-07-04T08:08:37.310Z,59.26
2023-07-04T08:09:37.330Z,59.86
2023-07-04T08:10:38.307Z,59.06
2023-07-04T08:11:38.247Z,59.63
2023-07-04T08:12:37.356Z,59.50
2023-07-04T08:13:38.320Z,58.47
2023-07-04T08:14:39.110Z,57.84
2023-07-04T08:15:39.206Z,58.01
2023-07-04T08:16:38.882Z,56.30
2023-07-04T08:17:39.379Z,56.71
2023-07-04T08:18:38.850Z,54.60
2023-07-04T08:19:37.918Z,55.10
2023-07-04T08:20:39.314Z,55.60
2023-07-04T08:21:40.477Z,55.47
2023-07-04T08:22:37.742Z,55.58
2023-07-04T08:23:39.179Z,54.07
2023-07-04T08:24:40.726Z,55.75
2023-07-04T08:25:40.522Z,53.92
2023-07-04T08:26:39.038Z,54.52
2023-07-04T08:27:39.321Z,54.22
2023-07-04T08:28:40.734Z,55.88
2023-07-04T08:29:39.164Z,55.18
2023-07-04T08:30:38.717Z,55.58
2023-07-04T08:31:39.782Z,55.30
2023-07-04T08:32:38.788Z,55.80
2023-07-04T08:33:38.158Z,55.91
2023-07-04T08:34:38.169Z,54.20
2023-07-04T08:35:38.132Z,55.76
2023-07-04T08:36:38.678Z,55.58
2023-07-04T08:37:38.259Z,56.82
2023-07-04T08:38:37.853Z,58.93
2023-07-04T08:39:42.707Z,56.49
2023-07-04T08:40:38.906Z,57.17
2023-07-04T08:41:39.124Z,54.75
2023-07-04T08:42:38.589Z,55.18
2023-07-04T08:43:39.546Z,56.66
2023-07-04T08:44:39.658Z,56.86
2023-07-04T08:45:38.520Z,55.05
2023-07-04T08:46:37.965Z,55.96
2023-07-04T08:47:38.594Z,57.50
2023-07-04T08:48:40.127Z,56.26
2023-07-04T08:49:39.659Z,57.44
2023-07-04T08:50:38.094Z,56.10
2023-07-04T08:51:38.555Z,54.75
2023-07-04T08:52:40.200Z,53.82
2023-07-04T08:53:37.853Z,54.43
2023-07-04T08:54:37.370Z,52.69
2023-07-04T08:55:38.542Z,52.67
2023-07-04T08:56:37.950Z,52.37
2023-07-04T08:57:38.376Z,52.55
2023-07-04T08:58:40.080Z,51.25
2023-07-04T08:59:38.001Z,51.64
2023-07-04T09:00:38.892Z,50.84
2023-07-04T09:01:38.249Z,53.27
2023-07-04T09:02:37.777Z,50.87
2023-07-04T09:03:37.868Z,51.27
2023-07-04T09:04:37.922Z,52.27
2023-07-04T09:05:38.243Z,51.27
2023-07-04T09:06:40.929Z,52.57
2023-07-04T09:07:38.893Z,53.05
2023-07-04T09:08:38.253Z,51.34
2023-07-04T09:09:38.140Z,51.72
2023-07-04T09:10:39.928Z,51.29
2023-07-04T09:11:38.352Z,52.49
2023-07-04T09:12:39.131Z,51.79
2023-07-04T09:13:38.207Z,50.92
2023-07-04T09:14:39.955Z,51.42
2023-07-04T09:15:38.675Z,51.12
2023-07-04T09:16:39.129Z,52.52
2023-07-04T09:17:39.421Z,50.59
2023-07-04T09:18:38.267Z,50.29
2023-07-04T09:19:39.023Z,52.69
2023-07-04T09:20:38.612Z,47.92
2023-07-04T09:21:39.166Z,49.41
2023-07-04T09:22:39.258Z,49.82
2023-07-04T09:23:38.524Z,50.46
2023-07-04T09:24:46.953Z,52.32
2023-07-04T09:25:39.564Z,52.89
2023-07-04T09:26:38.021Z,51.29
2023-07-04T09:27:39.970Z,53.00
2023-07-04T09:28:36.686Z,50.99
2023-07-04T09:29:36.659Z,52.47
2023-07-04T09:30:37.828Z,51.34
2023-07-04T09:31:39.403Z,51.25
2023-07-04T09:32:36.548Z,50.84
2023-07-04T09:33:36.710Z,52.37
2023-07-04T09:34:36.768Z,51.46
2023-07-04T09:35:36.826Z,52.34
2023-07-04T09:36:36.527Z,51.32
2023-07-04T09:37:36.480Z,50.02
2023-07-04T09:38:36.766Z,50.42
2023-07-04T09:39:36.737Z,49.44
2023-07-04T09:40:36.701Z,49.16
2023-07-04T09:41:47.767Z,50.04
2023-07-04T09:42:46.792Z,51.74
2023-07-04T09:43:37.539Z,51.20
2023-07-04T09:44:37.320Z,48.97
2023-07-04T09:45:36.538Z,49.90
2023-07-04T09:46:37.720Z,49.59
2023-07-04T09:47:39.229Z,50.04
2023-07-04T09:48:37.180Z,50.35
2023-07-04T09:49:37.349Z,49.70
2023-07-04T09:50:36.544Z,48.22
2023-07-04T09:51:37.684Z,48.13
2023-07-04T09:52:38.670Z,48.25
2023-07-04T09:53:38.721Z,48.35
2023-07-04T09:54:38.429Z,48.45
2023-07-04T09:55:40.464Z,47.55
2023-07-04T09:56:36.506Z,49.35
2023-07-04T09:57:37.176Z,47.71
2023-07-04T09:58:36.299Z,48.20
2023-07-04T09:59:37.403Z,46.58
2023-07-04T10:00:38.948Z,48.85
2023-07-04T10:01:39.267Z,48.25
2023-07-04T10:02:39.452Z,48.43
2023-07-04T10:03:38.591Z,46.80
2023-07-04T10:04:40.635Z,47.36
2023-07-04T10:05:37.770Z,47.33
2023-07-04T10:06:36.634Z,46.81
2023-07-04T10:07:36.341Z,44.70
2023-07-04T10:08:36.945Z,44.40
2023-07-04T10:09:36.989Z,47.24
2023-07-04T10:10:37.075Z,45.24
2023-07-04T10:11:37.701Z,45.06
2023-07-04T10:12:36.473Z,47.58
2023-07-04T10:13:37.195Z,46.26
2023-07-04T10:14:37.219Z,45.59
2023-07-04T10:15:36.944Z,45.89
2023-07-04T10:16:37.424Z,43.91
2023-07-04T10:17:39.183Z,47.92
2023-07-04T10:18:37.041Z,47.30
2023-07-04T10:19:37.552Z,46.88
2023-07-04T10:20:36.320Z,47.16
2023-07-04T10:21:36.116Z,45.14
2023-07-04T10:22:37.370Z,44.54
2023-07-04T10:23:37.984Z,46.31
2023-07-04T10:24:37.896Z,44.05
2023-07-04T10:25:36.302Z,44.91
2023-07-04T10:26:36.962Z,45.03
2023-07-04T10:27:37.938Z,46.83
2023-07-04T10:28:36.109Z,47.00
2023-07-04T10:29:35.979Z,46.66
2023-07-04T10:30:36.872Z,45.12
2023-07-04T10:31:37.493Z,42.95
2023-07-04T10:32:37.129Z,46.24
2023-07-04T10:33:36.680Z,46.72
2023-07-04T10:34:36.007Z,45.42
2023-07-04T10:35:38.014Z,46.49
2023-07-04T10:36:36.673Z,45.15
2023-07-04T10:37:36.754Z,43.76
2023-07-04T10:38:36.113Z,43.84
2023-07-04T10:39:36.772Z,41.87
2023-07-04T10:40:36.192Z,45.85
2023-07-04T10:41:38.823Z,43.54
2023-07-04T10:42:35.969Z,40.68
2023-07-04T10:43:36.928Z,43.98
2023-07-04T10:44:38.706Z,42.49
2023-07-04T10:45:42.173Z,43.66
2023-07-04T10:46:37.084Z,43.86
2023-07-04T10:47:36.682Z,41.30
2023-07-04T10:48:35.770Z,41.91
2023-07-04T10:49:36.598Z,44.31
2023-07-04T10:50:37.769Z,44.58
2023-07-04T10:51:38.438Z,42.31
2023-07-04T10:52:37.191Z,43.03
2023-07-04T10:53:36.753Z,45.02
2023-07-04T10:54:36.592Z,44.12
2023-07-04T10:55:36.777Z,43.07
2023-07-04T10:56:36.641Z,45.47
2023-07-04T10:57:35.814Z,43.67
2023-07-04T10:58:36.737Z,46.38
2023-07-04T10:59:36.751Z,45.47
2023-07-04T11:00:37.687Z,45.56
2023-07-04T11:01:36.657Z,47.24
2023-07-04T11:02:36.000Z,46.31
2023-07-04T11:03:37.798Z,44.48
2023-07-04T11:04:39.129Z,41.50
2023-07-04T11:05:38.510Z,44.70
2023-07-04T11:06:36.123Z,44.78
2023-07-04T11:07:37.608Z,41.79
2023-07-04T11:08:36.608Z,43.01
2023-07-04T11:09:35.939Z,41.71
2023-07-04T11:10:36.758Z,42.11
2023-07-04T11:11:38.609Z,42.99
2023-07-04T11:12:37.750Z,43.19
2023-07-04T11:13:37.420Z,43.79
2023-07-04T11:14:38.265Z,44.06
2023-07-04T11:15:38.092Z,42.67
2023-07-04T11:16:36.749Z,42.57
2023-07-04T11:17:37.787Z,43.46
2023-07-04T11:18:39.316Z,41.38
2023-07-04T11:19:36.550Z,42.89
2023-07-04T11:20:38.915Z,43.98
2023-07-04T11:21:37.745Z,40.90
2023-07-04T11:22:36.481Z,39.70
2023-07-04T11:23:35.971Z,41.89
2023-07-04T11:24:38.021Z,39.48
2023-07-04T11:25:36.380Z,39.89
2023-07-04T11:26:36.091Z,39.97
2023-07-04T11:27:36.500Z,40.26
2023-07-04T11:28:36.457Z,40.34
2023-07-04T11:29:36.401Z,41.02
2023-07-04T11:30:37.682Z,38.24
2023-07-04T11:31:36.166Z,38.97
2023-07-04T11:32:36.311Z,40.98
2023-07-04T11:33:37.054Z,40.20
2023-07-04T11:34:38.954Z,43.19
2023-07-04T11:35:35.848Z,42.77
2023-07-04T11:36:36.245Z,41.97
2023-07-04T11:37:36.115Z,41.36
2023-07-04T11:38:37.077Z,40.64
2023-07-04T11:39:36.797Z,41.17
2023-07-04T11:40:36.428Z,42.86
2023-07-04T11:41:36.356Z,41.55
2023-07-04T11:42:37.184Z,42.33
2023-07-04T11:43:37.034Z,41.00
2023-07-04T11:44:59.003Z,38.62
2023-07-04T11:45:36.659Z,41.20
2023-07-04T11:46:35.407Z,40.19
2023-07-04T11:47:36.600Z,37.79
2023-07-04T11:48:35.669Z,38.78
2023-07-04T11:49:35.914Z,41.14
2023-07-04T11:50:36.933Z,39.23
2023-07-04T11:51:36.509Z,37.55
2023-07-04T11:52:37.128Z,38.23
2023-07-04T11:53:38.000Z,38.84
2023-07-04T11:54:35.325Z,36.18
2023-07-04T11:55:38.543Z,37.54
2023-07-04T11:56:35.036Z,40.94
2023-07-04T11:57:37.383Z,41.93
2023-07-04T11:58:36.181Z,40.05
2023-07-04T11:59:35.881Z,38.69
2023-07-04T12:00:36.558Z,41.33
2023-07-04T12:01:36.844Z,41.93
2023-07-04T12:02:37.327Z,41.91
2023-07-04T12:03:36.264Z,41.22
2023-07-04T12:04:35.102Z,41.91
2023-07-04T12:05:35.805Z,45.22
2023-07-04T12:06:35.853Z,43.88
2023-07-04T12:07:35.113Z,41.55
2023-07-04T12:08:35.894Z,41.25
2023-07-04T12:09:35.889Z,42.23
2023-07-04T12:10:36.338Z,43.57
2023-07-04T12:11:35.328Z,41.09
2023-07-04T12:12:35.463Z,43.07
2023-07-04T12:13:35.740Z,41.39
2023-07-04T12:14:36.668Z,42.81
2023-07-04T12:15:35.208Z,42.91
2023-07-04T12:16:36.707Z,43.41
2023-07-04T12:17:35.189Z,42.89
2023-07-04T12:18:35.791Z,43.08
2023-07-04T12:19:39.319Z,42.86
2023-07-04T12:20:35.652Z,42.97
2023-07-04T12:21:35.571Z,42.67
2023-07-04T12:22:35.565Z,42.35
2023-07-04T12:23:34.841Z,41.09
2023-07-04T12:24:34.991Z,41.17
2023-07-04T12:25:35.883Z,42.85
2023-07-04T12:26:36.197Z,41.14
2023-07-04T12:27:37.380Z,39.84
2023-07-04T12:28:37.342Z,42.80
2023-07-04T12:30:39.252Z,39.11
2023-07-04T12:32:36.999Z,40.80
2023-07-04T12:33:37.020Z,39.51
2023-07-04T12:35:11.139Z,41.17
2023-07-04T12:35:35.711Z,40.36
2023-07-04T12:36:35.432Z,38.98
2023-07-04T12:37:35.292Z,38.28
2023-07-04T12:38:35.537Z,40.78
2023-07-04T12:39:34.728Z,41.47
2023-07-04T12:40:35.808Z,42.05
2023-07-04T12:41:36.687Z,41.22
2023-07-04T12:42:36.868Z,39.71
2023-07-04T12:44:38.100Z,39.28
2023-07-04T12:45:37.134Z,37.18
2023-07-04T12:47:36.476Z,35.44
2023-07-04T12:49:35.272Z,36.24
2023-07-04T12:50:34.619Z,39.53
2023-07-04T12:51:35.599Z,37.55
2023-07-04T12:52:35.901Z,40.60
2023-07-04T12:53:35.714Z,38.90
2023-07-04T12:54:35.953Z,36.71
2023-07-04T12:55:35.225Z,37.48
2023-07-04T12:56:34.509Z,36.85
2023-07-04T12:57:36.267Z,34.88